Ashcroft, Canada
Current Conditions -  °F | °C
As of 6:05 PM on Saturday 25 Oct 2014 (Local Time) from CYKA Reporting Station
Overcast Overcast  
Wind Chill: 50°   Ceiling: 11000
Heat Index: 50°   Visibility: 40mi
Dew Point: 39°   Wind: 8mph
Humidity: 66%   Direction: 130°SE
Pressure: 29.39"   Gusts: NA
Location:  50.72°N, 121.27°W
Report Text: CYKA 260105Z 13007KT 40SM SCT070 BKN110 BKN150 OVC220 10/04 A2939 RMK AC3AC2AC2CI1 SLP961 DENSITY ALT 1300FT
Loading
Personal Weather Stations






























Interactive Weather Map
Tropical Storm Tracking
New forecast layout! Learn more

10-Day Weather Forecast

Advertisements
Track Severe Weather on mobile